createdAt,value
2022-11-29T00:01:12.177Z,16.90
2022-11-29T00:03:40.002Z,17.30
2022-11-29T00:06:09.495Z,16.80
2022-11-29T00:08:38.077Z,17.75
2022-11-29T00:11:09.309Z,16.92
2022-11-29T00:13:37.170Z,17.90
2022-11-29T00:16:06.344Z,15.50
2022-11-29T00:18:34.694Z,16.67
2022-11-29T00:21:06.776Z,16.38
2022-11-29T00:23:34.544Z,17.50
2022-11-29T00:26:05.150Z,16.88
2022-11-29T00:28:35.472Z,17.50
2022-11-29T00:31:14.878Z,16.92
2022-11-29T00:33:42.876Z,17.63
2022-11-29T00:36:10.805Z,17.50
2022-11-29T00:38:39.083Z,16.85
2022-11-29T00:41:07.221Z,17.67
2022-11-29T00:43:36.797Z,16.42
2022-11-29T00:46:05.388Z,16.15
2022-11-29T00:48:35.073Z,16.33
2022-11-29T00:51:03.119Z,16.02
2022-11-29T00:53:30.983Z,17.23
2022-11-29T00:55:58.819Z,15.60
2022-11-29T00:58:26.689Z,18.15
2022-11-29T01:00:56.133Z,17.27
2022-11-29T01:03:24.731Z,17.02
2022-11-29T01:05:52.987Z,16.73
2022-11-29T01:08:20.677Z,16.88
2022-11-29T01:10:48.365Z,17.67
2022-11-29T01:13:16.079Z,17.02
2022-11-29T01:15:43.809Z,17.58
2022-11-29T01:18:12.937Z,17.45
2022-11-29T01:20:40.642Z,17.70
2022-11-29T01:23:08.327Z,17.67
2022-11-29T01:25:36.044Z,17.30
2022-11-29T01:28:03.808Z,18.42
2022-11-29T01:30:31.631Z,17.98
2022-11-29T01:32:59.342Z,17.05
2022-11-29T01:35:28.363Z,17.45
2022-11-29T01:37:56.039Z,18.45
2022-11-29T01:40:23.751Z,18.98
2022-11-29T01:42:51.407Z,17.88
2022-11-29T01:45:24.823Z,17.85
2022-11-29T01:47:56.268Z,17.67
2022-11-29T01:50:24.207Z,17.42
2022-11-29T01:52:53.626Z,17.15
2022-11-29T01:55:21.666Z,17.90
2022-11-29T01:57:50.021Z,17.08
2022-11-29T02:00:20.823Z,17.33
2022-11-29T02:02:52.929Z,17.45
2022-11-29T02:05:21.666Z,19.05
2022-11-29T02:07:53.087Z,17.65
2022-11-29T02:10:27.512Z,17.48
2022-11-29T02:13:01.910Z,17.15
2022-11-29T02:15:37.731Z,16.65
2022-11-29T02:18:10.842Z,16.80
2022-11-29T02:21:07.264Z,17.23
2022-11-29T02:24:11.480Z,17.98
2022-11-29T02:27:03.629Z,17.15
2022-11-29T02:29:50.383Z,16.58
2022-11-29T02:32:55.238Z,16.58
2022-11-29T02:35:43.365Z,17.95
2022-11-29T02:38:26.346Z,18.20
2022-11-29T02:41:06.262Z,17.48
2022-11-29T02:43:52.666Z,17.83
2022-11-29T02:46:40.536Z,17.90
2022-11-29T02:49:16.922Z,18.30
2022-11-29T02:51:53.349Z,17.50
2022-11-29T02:54:27.514Z,17.10
2022-11-29T02:57:00.498Z,17.48
2022-11-29T03:02:18.927Z,18.00
2022-11-29T03:04:53.728Z,17.55
2022-11-29T03:07:26.611Z,16.85
2022-11-29T03:12:34.897Z,16.67
2022-11-29T03:15:12.119Z,17.42
2022-11-29T03:17:56.509Z,17.58
2022-11-29T03:20:36.560Z,16.13
2022-11-29T03:23:20.069Z,17.90
2022-11-29T03:25:55.998Z,18.10
2022-11-29T03:28:28.332Z,18.38
2022-11-29T03:31:04.438Z,18.33
2022-11-29T03:33:42.608Z,18.67
2022-11-29T03:36:17.140Z,18.75
2022-11-29T03:38:47.128Z,19.63
2022-11-29T03:41:21.502Z,18.42
2022-11-29T03:44:01.436Z,18.95
2022-11-29T03:46:36.026Z,19.33
2022-11-29T03:49:08.500Z,19.30
2022-11-29T03:51:50.877Z,18.48
2022-11-29T03:54:25.332Z,17.98
2022-11-29T03:56:53.781Z,18.77
2022-11-29T03:59:37.217Z,17.48
2022-11-29T04:02:34.671Z,17.13
2022-11-29T04:05:26.360Z,17.13
2022-11-29T04:08:39.002Z,18.40
2022-11-29T04:11:54.747Z,16.08
2022-11-29T04:14:44.013Z,16.45
2022-11-29T04:17:40.939Z,16.27
2022-11-29T04:20:49.683Z,16.25
2022-11-29T04:23:59.965Z,17.38
2022-11-29T04:26:54.101Z,16.50
2022-11-29T04:29:56.345Z,16.48
2022-11-29T04:32:52.311Z,16.98
2022-11-29T04:35:34.962Z,15.18
2022-11-29T04:38:30.834Z,16.90
2022-11-29T04:41:14.870Z,17.20
2022-11-29T04:43:55.517Z,15.63
2022-11-29T04:46:56.701Z,15.93
2022-11-29T04:49:56.044Z,15.20
2022-11-29T04:52:44.151Z,15.45
2022-11-29T04:55:29.448Z,15.57
2022-11-29T04:58:10.317Z,15.63
2022-11-29T05:00:46.571Z,15.13
2022-11-29T05:03:22.091Z,14.20
2022-11-29T05:05:58.476Z,14.57
2022-11-29T05:08:34.286Z,14.77
2022-11-29T05:11:11.618Z,14.90
2022-11-29T05:13:52.140Z,14.95
2022-11-29T05:16:47.043Z,14.50
2022-11-29T05:19:46.897Z,14.38
2022-11-29T05:22:25.720Z,14.50
2022-11-29T05:25:01.708Z,14.13
2022-11-29T05:27:43.359Z,13.52
2022-11-29T05:30:16.803Z,14.30
2022-11-29T05:32:56.302Z,14.45
2022-11-29T05:35:50.275Z,14.32
2022-11-29T05:38:34.581Z,14.05
2022-11-29T05:41:16.333Z,13.60
2022-11-29T05:43:57.934Z,13.88
2022-11-29T05:46:33.301Z,13.75
2022-11-29T05:49:14.747Z,14.13
2022-11-29T05:51:51.489Z,13.73
2022-11-29T05:54:28.580Z,13.32
2022-11-29T05:57:07.326Z,14.23
2022-11-29T05:59:39.284Z,13.70
2022-11-29T06:02:18.921Z,15.48
2022-11-29T06:04:58.547Z,14.95
2022-11-29T06:07:31.692Z,14.70
2022-11-29T06:10:04.015Z,14.73
2022-11-29T06:12:36.125Z,18.65
2022-11-29T06:15:25.400Z,15.32
2022-11-29T06:18:06.149Z,18.80
2022-11-29T06:20:44.533Z,20.55
2022-11-29T06:23:28.991Z,15.52
2022-11-29T06:26:09.785Z,14.30
2022-11-29T06:28:49.597Z,14.23
2022-11-29T06:31:22.734Z,14.00
2022-11-29T06:33:59.919Z,14.85
2022-11-29T06:36:33.165Z,15.57
2022-11-29T06:39:01.225Z,13.65
2022-11-29T06:41:29.515Z,13.82
2022-11-29T06:43:57.789Z,14.48
2022-11-29T06:46:38.934Z,14.40
2022-11-29T06:49:14.027Z,15.05
2022-11-29T06:51:50.164Z,14.57
2022-11-29T06:54:33.207Z,14.30
2022-11-29T06:57:11.394Z,14.25
2022-11-29T06:59:51.634Z,14.80
2022-11-29T07:02:39.315Z,14.85
2022-11-29T07:05:16.899Z,14.65
2022-11-29T07:07:47.009Z,14.63
2022-11-29T07:10:18.141Z,15.80
2022-11-29T07:12:47.292Z,14.88
2022-11-29T07:15:17.494Z,14.80
2022-11-29T07:18:00.888Z,15.65
2022-11-29T07:20:39.683Z,15.13
2022-11-29T07:23:14.328Z,15.65
2022-11-29T07:25:54.160Z,15.63
2022-11-29T07:28:34.579Z,15.50
2022-11-29T07:31:09.771Z,14.52
2022-11-29T07:33:48.248Z,15.27
2022-11-29T07:36:24.412Z,15.35
2022-11-29T07:39:04.235Z,14.50
2022-11-29T07:41:40.741Z,14.13
2022-11-29T07:44:18.019Z,14.98
2022-11-29T07:46:45.971Z,14.80
2022-11-29T07:49:13.757Z,13.98
2022-11-29T07:51:43.122Z,14.77
2022-11-29T07:54:14.225Z,13.73
2022-11-29T07:56:41.966Z,14.30
2022-11-29T07:59:10.965Z,13.45
2022-11-29T08:01:38.701Z,13.98
2022-11-29T08:04:06.978Z,15.65
2022-11-29T08:06:34.942Z,14.27
2022-11-29T08:09:05.464Z,13.70
2022-11-29T08:11:33.270Z,12.85
2022-11-29T08:14:02.336Z,13.10
2022-11-29T08:16:30.186Z,13.30
2022-11-29T08:18:58.021Z,13.35
2022-11-29T08:21:25.828Z,13.05
2022-11-29T08:23:54.173Z,14.27
2022-11-29T08:26:26.906Z,14.10
2022-11-29T08:28:58.920Z,12.63
2022-11-29T08:31:26.694Z,12.68
2022-11-29T08:33:54.464Z,13.40
2022-11-29T08:36:22.614Z,12.70
2022-11-29T08:38:54.174Z,12.73
2022-11-29T08:41:28.485Z,13.10
2022-11-29T08:43:56.635Z,12.77
2022-11-29T08:46:44.663Z,13.68
2022-11-29T08:49:12.455Z,12.48
2022-11-29T08:51:40.245Z,13.43
2022-11-29T08:54:06.996Z,13.00
2022-11-29T08:59:25.729Z,13.13
2022-11-29T09:01:53.480Z,13.70
2022-11-29T09:04:21.248Z,13.57
2022-11-29T09:06:49.711Z,13.27
2022-11-29T09:09:18.136Z,14.02
2022-11-29T09:11:49.585Z,13.60
2022-11-29T09:14:18.157Z,14.38
2022-11-29T09:16:45.992Z,14.18
2022-11-29T09:19:15.432Z,13.93
2022-11-29T09:21:43.214Z,14.52
2022-11-29T09:24:10.966Z,14.05
2022-11-29T09:26:40.839Z,13.80
2022-11-29T09:29:10.240Z,14.57
2022-11-29T09:31:38.038Z,13.68
2022-11-29T09:34:05.773Z,15.27
2022-11-29T09:36:33.749Z,15.82
2022-11-29T09:39:03.258Z,14.77
2022-11-29T09:41:48.527Z,14.57
2022-11-29T09:44:23.370Z,14.75
2022-11-29T09:47:02.358Z,13.73
2022-11-29T09:49:51.984Z,14.13
2022-11-29T09:52:29.186Z,14.13
2022-11-29T09:55:07.339Z,13.43
2022-11-29T09:57:35.504Z,13.85
2022-11-29T10:00:08.392Z,13.50
2022-11-29T10:05:12.356Z,13.32
2022-11-29T10:10:19.780Z,14.07
2022-11-29T10:12:53.504Z,14.15
2022-11-29T10:15:27.395Z,14.98
2022-11-29T10:18:00.051Z,14.20
2022-11-29T10:20:35.371Z,15.52
2022-11-29T10:23:17.016Z,14.90
2022-11-29T10:25:47.856Z,13.95
2022-11-29T10:28:18.687Z,14.70
2022-11-29T10:30:48.904Z,14.85
2022-11-29T10:33:21.394Z,14.15
2022-11-29T10:35:52.195Z,15.20
2022-11-29T10:38:30.931Z,13.70
2022-11-29T10:41:06.828Z,14.77
2022-11-29T10:43:34.970Z,14.10
2022-11-29T10:46:05.439Z,14.82
2022-11-29T10:48:35.361Z,14.40
2022-11-29T10:51:03.574Z,14.73
2022-11-29T10:53:37.203Z,14.35
2022-11-29T10:56:09.505Z,15.60
2022-11-29T10:58:40.903Z,16.20
2022-11-29T11:01:14.454Z,15.90
2022-11-29T11:03:43.996Z,17.63
2022-11-29T11:06:14.726Z,17.45
2022-11-29T11:08:45.103Z,17.58
2022-11-29T11:11:13.432Z,17.67
2022-11-29T11:13:42.459Z,17.23
2022-11-29T11:16:19.419Z,17.83
2022-11-29T11:18:48.743Z,18.27
2022-11-29T11:21:19.038Z,18.10
2022-11-29T11:23:54.155Z,18.63
2022-11-29T11:26:22.533Z,18.75
2022-11-29T11:28:54.267Z,17.90
2022-11-29T11:31:34.148Z,17.80
2022-11-29T11:34:25.383Z,18.90
2022-11-29T11:36:53.712Z,19.33
2022-11-29T11:39:24.125Z,18.98
2022-11-29T11:42:10.957Z,19.48
2022-11-29T11:44:49.376Z,19.13
2022-11-29T11:47:22.373Z,19.00
2022-11-29T11:52:24.942Z,18.52
2022-11-29T11:54:56.260Z,18.73
2022-11-29T11:57:25.462Z,18.35
2022-11-29T11:59:55.081Z,17.80
2022-11-29T12:02:29.746Z,18.67
2022-11-29T12:05:01.695Z,18.38
2022-11-29T12:08:06.943Z,17.90
2022-11-29T12:10:28.477Z,18.05
2022-11-29T12:12:58.273Z,16.70
2022-11-29T12:15:29.735Z,16.30
2022-11-29T12:18:04.500Z,16.27
2022-11-29T12:20:35.073Z,16.17
2022-11-29T12:23:26.331Z,16.85
2022-11-29T12:25:59.117Z,15.70
2022-11-29T12:28:30.507Z,16.20
2022-11-29T12:31:08.455Z,16.27
2022-11-29T12:33:47.311Z,16.20
2022-11-29T12:36:33.423Z,17.90
2022-11-29T12:39:23.661Z,18.08
2022-11-29T12:41:57.270Z,17.90
2022-11-29T12:44:37.051Z,17.05
2022-11-29T12:47:38.559Z,16.63
2022-11-29T12:50:22.956Z,16.83
2022-11-29T12:53:01.915Z,17.23
2022-11-29T12:55:42.534Z,17.10
2022-11-29T12:58:18.198Z,16.23
2022-11-29T13:00:54.543Z,16.08
2022-11-29T13:03:29.921Z,17.13
2022-11-29T13:06:09.565Z,16.30
2022-11-29T13:08:54.702Z,15.73
2022-11-29T13:11:26.824Z,16.77
2022-11-29T13:14:13.828Z,15.38
2022-11-29T13:16:56.260Z,16.20
2022-11-29T13:19:30.695Z,14.52
2022-11-29T13:22:11.686Z,15.13
2022-11-29T13:24:44.532Z,15.27
2022-11-29T13:27:19.903Z,14.27
2022-11-29T13:29:48.822Z,13.90
2022-11-29T13:32:31.196Z,14.43
2022-11-29T13:35:04.359Z,15.43
2022-11-29T13:37:40.081Z,14.45
2022-11-29T13:40:24.737Z,14.20
2022-11-29T13:43:02.845Z,14.57
2022-11-29T13:45:38.614Z,13.07
2022-11-29T13:48:33.950Z,12.98
2022-11-29T13:51:27.092Z,11.60
2022-11-29T13:53:58.572Z,10.40
2022-11-29T13:56:29.786Z,10.98
2022-11-29T13:58:58.962Z,10.68
2022-11-29T14:01:27.558Z,10.27
2022-11-29T14:04:08.373Z,10.75
2022-11-29T14:06:38.219Z,9.95
2022-11-29T14:09:29.260Z,10.60
2022-11-29T14:12:02.846Z,11.32
2022-11-29T14:14:37.206Z,10.75
2022-11-29T14:17:08.061Z,10.80
2022-11-29T14:19:37.515Z,10.95
2022-11-29T14:22:21.841Z,10.82
2022-11-29T14:25:49.137Z,10.65
2022-11-29T14:28:31.218Z,10.45
2022-11-29T14:31:01.450Z,11.38
2022-11-29T14:33:51.655Z,11.45
2022-11-29T14:36:47.438Z,10.70
2022-11-29T14:39:43.144Z,11.63
2022-11-29T14:42:19.266Z,11.10
2022-11-29T14:44:52.018Z,11.02
2022-11-29T14:47:32.279Z,10.98
2022-11-29T14:50:04.026Z,11.88
2022-11-29T14:52:34.643Z,11.25
2022-11-29T14:55:06.703Z,11.77
2022-11-29T14:58:15.756Z,11.40
2022-11-29T15:01:10.584Z,12.27
2022-11-29T15:03:49.486Z,18.20
2022-11-29T15:06:27.010Z,14.10
2022-11-29T15:09:03.901Z,13.63
2022-11-29T15:11:41.230Z,13.35
2022-11-29T15:14:29.951Z,12.32
2022-11-29T15:17:14.033Z,14.25
2022-11-29T15:20:10.135Z,14.80
2022-11-29T15:22:47.832Z,13.95
2022-11-29T15:25:18.438Z,14.05
2022-11-29T15:27:54.303Z,14.20
2022-11-29T15:30:30.275Z,14.15
2022-11-29T15:32:59.612Z,14.02
2022-11-29T15:35:28.141Z,15.05
2022-11-29T15:37:56.362Z,23.90
2022-11-29T15:40:26.409Z,22.70
2022-11-29T15:42:57.982Z,23.63
2022-11-29T15:45:34.807Z,19.30
2022-11-29T15:48:14.080Z,31.25
2022-11-29T15:50:47.111Z,18.33
2022-11-29T15:53:21.192Z,18.52
2022-11-29T15:55:51.552Z,16.08
2022-11-29T15:58:20.956Z,14.98
2022-11-29T16:00:51.659Z,14.15
2022-11-29T16:03:25.819Z,14.88
2022-11-29T16:06:05.322Z,14.35
2022-11-29T16:08:38.511Z,14.77
2022-11-29T16:11:07.877Z,14.05
2022-11-29T16:13:38.233Z,13.38
2022-11-29T16:16:12.184Z,13.02
2022-11-29T16:18:42.164Z,14.55
2022-11-29T16:21:24.735Z,14.15
2022-11-29T16:23:52.595Z,13.68
2022-11-29T16:26:24.101Z,13.75
2022-11-29T16:28:53.838Z,14.07
2022-11-29T16:31:25.602Z,15.02
2022-11-29T16:33:53.762Z,14.85
2022-11-29T16:36:24.678Z,15.50
2022-11-29T16:38:55.018Z,14.63
2022-11-29T16:41:26.132Z,14.88
2022-11-29T16:43:56.202Z,15.23
2022-11-29T16:46:37.144Z,15.65
2022-11-29T16:49:35.462Z,14.80
2022-11-29T16:52:03.982Z,14.73
2022-11-29T16:54:34.284Z,15.23
2022-11-29T16:57:06.485Z,15.73
2022-11-29T16:59:35.342Z,14.85
2022-11-29T17:02:04.675Z,15.07
2022-11-29T17:04:32.452Z,15.38
2022-11-29T17:07:00.635Z,15.30
2022-11-29T17:09:30.687Z,15.38
2022-11-29T17:12:00.961Z,15.02
2022-11-29T17:14:29.319Z,15.32
2022-11-29T17:16:57.163Z,14.82
2022-11-29T17:19:26.408Z,16.55
2022-11-29T17:21:54.076Z,15.30
2022-11-29T17:24:23.604Z,15.45
2022-11-29T17:26:51.580Z,16.15
2022-11-29T17:29:19.631Z,16.08
2022-11-29T17:31:50.451Z,16.23
2022-11-29T17:34:18.663Z,15.57
2022-11-29T17:36:47.788Z,16.08
2022-11-29T17:39:19.463Z,16.48
2022-11-29T17:41:47.607Z,16.52
2022-11-29T17:44:15.470Z,17.45
2022-11-29T17:46:43.380Z,16.45
2022-11-29T17:49:11.566Z,15.82
2022-11-29T17:51:56.467Z,15.80
2022-11-29T17:54:25.800Z,16.27
2022-11-29T17:56:53.676Z,16.20
2022-11-29T17:59:21.449Z,16.48
2022-11-29T18:01:49.320Z,17.00
2022-11-29T18:04:17.145Z,16.88
2022-11-29T18:06:49.461Z,17.40
2022-11-29T18:09:18.669Z,17.50
2022-11-29T18:11:50.148Z,18.00
2022-11-29T18:14:20.460Z,18.75
2022-11-29T18:16:48.293Z,18.50
2022-11-29T18:19:18.829Z,18.23
2022-11-29T18:21:47.309Z,17.75
2022-11-29T18:24:15.183Z,17.05
2022-11-29T18:26:43.527Z,16.52
2022-11-29T18:29:12.694Z,16.67
2022-11-29T18:31:42.667Z,16.88
2022-11-29T18:34:11.796Z,21.58
2022-11-29T18:36:43.434Z,19.20
2022-11-29T18:39:15.070Z,17.13
2022-11-29T18:41:44.756Z,17.15
2022-11-29T18:44:15.447Z,18.00
2022-11-29T18:46:44.523Z,16.48
2022-11-29T18:49:14.766Z,17.25
2022-11-29T18:51:44.789Z,15.48
2022-11-29T18:54:14.101Z,14.98
2022-11-29T18:56:42.538Z,15.50
2022-11-29T18:59:12.137Z,15.18
2022-11-29T19:01:42.728Z,15.55
2022-11-29T19:04:12.937Z,15.20
2022-11-29T19:06:41.414Z,14.70
2022-11-29T19:09:13.772Z,15.95
2022-11-29T19:11:41.749Z,15.52
2022-11-29T19:14:12.479Z,15.98
2022-11-29T19:16:42.985Z,16.02
2022-11-29T19:19:11.005Z,15.73
2022-11-29T19:21:39.686Z,16.40
2022-11-29T19:24:14.093Z,15.82
2022-11-29T19:26:44.207Z,15.40
2022-11-29T19:29:12.626Z,15.82
2022-11-29T19:31:42.557Z,14.57
2022-11-29T19:34:10.473Z,15.13
2022-11-29T19:36:42.844Z,15.13
2022-11-29T19:39:12.136Z,15.40
2022-11-29T19:41:40.001Z,15.57
2022-11-29T19:44:09.464Z,15.18
2022-11-29T19:46:38.877Z,15.52
2022-11-29T19:49:09.331Z,16.08
2022-11-29T19:51:37.667Z,15.70
2022-11-29T19:54:07.569Z,14.90
2022-11-29T19:56:36.264Z,14.80
2022-11-29T19:59:04.014Z,15.93
2022-11-29T20:01:40.404Z,15.50
2022-11-29T20:04:11.478Z,15.82
2022-11-29T20:06:39.587Z,16.02
2022-11-29T20:09:07.568Z,15.70
2022-11-29T20:11:35.396Z,15.05
2022-11-29T20:14:04.419Z,15.00
2022-11-29T20:16:32.647Z,16.05
2022-11-29T20:19:01.752Z,15.57
2022-11-29T20:21:33.713Z,14.73
2022-11-29T20:24:03.083Z,15.70
2022-11-29T20:26:32.102Z,15.60
2022-11-29T20:29:00.228Z,15.57
2022-11-29T20:31:28.373Z,14.85
2022-11-29T20:33:57.598Z,14.90
2022-11-29T20:36:38.728Z,15.07
2022-11-29T20:39:18.390Z,14.82
2022-11-29T20:41:56.285Z,14.88
2022-11-29T20:44:37.353Z,15.20
2022-11-29T20:47:14.380Z,15.30
2022-11-29T20:49:42.522Z,15.00
2022-11-29T20:52:16.497Z,14.45
2022-11-29T20:54:44.259Z,15.10
2022-11-29T20:57:12.170Z,15.32
2022-11-29T20:59:39.907Z,14.27
2022-11-29T21:02:07.698Z,13.63
2022-11-29T21:04:35.435Z,14.13
2022-11-29T21:07:03.313Z,13.90
2022-11-29T21:12:14.930Z,14.13
2022-11-29T21:14:44.215Z,13.68
2022-11-29T21:17:12.572Z,14.35
2022-11-29T21:19:41.044Z,13.45
2022-11-29T21:22:18.167Z,13.70
2022-11-29T21:24:57.512Z,13.15
2022-11-29T21:27:29.860Z,14.60
2022-11-29T21:29:58.051Z,15.95
2022-11-29T21:32:27.831Z,15.95
2022-11-29T21:34:55.647Z,16.02
2022-11-29T21:37:27.525Z,15.20
2022-11-29T21:39:57.208Z,15.95
2022-11-29T21:42:25.032Z,17.00
2022-11-29T21:44:52.855Z,14.50
2022-11-29T21:47:20.701Z,14.45
2022-11-29T21:49:48.404Z,14.25
2022-11-29T21:52:21.960Z,14.65
2022-11-29T21:54:50.518Z,15.02
2022-11-29T21:57:19.582Z,14.98
2022-11-29T21:59:47.303Z,14.35
2022-11-29T22:02:15.203Z,14.65
2022-11-29T22:04:43.139Z,15.63
2022-11-29T22:07:10.849Z,17.02
2022-11-29T22:09:38.612Z,14.68
2022-11-29T22:12:31.974Z,14.77
2022-11-29T22:14:55.820Z,15.82
2022-11-29T22:17:23.875Z,14.65
2022-11-29T22:19:51.568Z,16.67
2022-11-29T22:22:19.326Z,14.60
2022-11-29T22:24:47.315Z,14.30
2022-11-29T22:27:17.671Z,15.63
2022-11-29T22:29:45.601Z,14.90
2022-11-29T22:32:14.770Z,15.20
2022-11-29T22:34:42.497Z,15.25
2022-11-29T22:37:10.162Z,14.90
2022-11-29T22:39:37.944Z,14.70
2022-11-29T22:42:05.719Z,14.10
2022-11-29T22:44:33.491Z,15.23
2022-11-29T22:47:01.204Z,15.88
2022-11-29T22:49:33.073Z,14.65
2022-11-29T22:52:00.834Z,15.68
2022-11-29T22:54:28.552Z,15.68
2022-11-29T22:56:56.257Z,15.98
2022-11-29T22:59:23.960Z,16.02
2022-11-29T23:01:51.672Z,16.38
2022-11-29T23:04:19.557Z,16.40
2022-11-29T23:06:48.673Z,15.68
2022-11-29T23:09:21.077Z,16.88
2022-11-29T23:11:52.078Z,16.48
2022-11-29T23:14:20.171Z,18.10
2022-11-29T23:16:48.166Z,18.70
2022-11-29T23:19:16.354Z,18.48
2022-11-29T23:21:45.818Z,18.60
2022-11-29T23:24:15.375Z,17.85
2022-11-29T23:26:45.919Z,18.90
2022-11-29T23:29:15.177Z,18.50
2022-11-29T23:31:43.720Z,17.73
2022-11-29T23:34:11.582Z,18.02
2022-11-29T23:36:39.354Z,18.65
2022-11-29T23:39:07.591Z,19.25
2022-11-29T23:41:36.750Z,19.92
2022-11-29T23:44:04.667Z,19.38
2022-11-29T23:46:32.336Z,19.60
2022-11-29T23:49:00.081Z,18.95
2022-11-29T23:51:27.955Z,17.88
2022-11-29T23:53:55.766Z,18.55
2022-11-29T23:56:23.775Z,17.88
2022-11-29T23:58:52.830Z,18.85
